Time;durP1;ratioP1;P1;durP2;ratioP2;P2;SDS_P1;SDS_P2;PMS_P1;PMS_P2;Temp;Humidity;BMP_temperature;BMP_pressure;BME280_temperature;BME280_humidity;BME280_pressure;Samples;Min_cycle;Max_cycle;Signal;HPM_P1;HPM_P2
2024/01/06 00:00:50;;;;;;;8.27;2.10;;;;;;;;;;5052706;28;20028;-69
2024/01/06 00:03:36;;;;;;;4.57;2.33;;;;;;;;;;5053661;28;20029;-69
2024/01/06 00:06:21;;;;;;;2.53;2.05;;;;;;;;;;5052224;28;20024;-68
2024/01/06 00:09:07;;;;;;;4.05;2.42;;;;;;;;;;5037602;28;20061;-70
2024/01/06 00:11:53;;;;;;;3.50;2.42;;;;;;;;;;5033578;28;20018;-69
2024/01/06 00:14:42;;;;;;;4.55;2.88;;;;;;;;;;5033899;28;20033;-69
2024/01/06 00:17:27;;;;;;;5.55;2.58;;;;;;;;;;5033867;28;20083;-70
2024/01/06 00:20:13;;;;;;;5.72;2.47;;;;;;;;;;5033531;28;20025;-69
2024/01/06 00:22:59;;;;;;;4.13;3.08;;;;;;;;;;5033860;28;20127;-69
2024/01/06 00:25:44;;;;;;;5.78;2.95;;;;;;;;;;5039570;28;20028;-69
2024/01/06 00:28:30;;;;;;;4.57;3.28;;;;;;;;;;5053867;28;20053;-69
2024/01/06 00:31:17;;;;;;;5.72;2.78;;;;;;;;;;5053166;28;20091;-69
2024/01/06 00:34:03;;;;;;;7.90;3.40;;;;;;;;;;5053275;28;20025;-69
2024/01/06 00:36:49;;;;;;;7.38;3.90;;;;;;;;;;5053385;28;20553;-69
2024/01/06 00:39:34;;;;;;;3.33;2.45;;;;;;;;;;5052855;28;20028;-69
2024/01/06 00:42:20;;;;;;;7.68;3.92;;;;;;;;;;5052659;28;20021;-69
2024/01/06 00:45:06;;;;;;;6.57;2.75;;;;;;;;;;5052272;28;20021;-69
2024/01/06 00:47:52;;;;;;;6.88;2.50;;;;;;;;;;5053162;28;20025;-69
2024/01/06 00:50:37;;;;;;;4.63;2.47;;;;;;;;;;5053563;28;20028;-69
2024/01/06 00:53:23;;;;;;;9.25;2.72;;;;;;;;;;5053178;28;20557;-69
2024/01/06 00:56:08;;;;;;;2.72;2.47;;;;;;;;;;5053191;28;20060;-69
2024/01/06 00:58:54;;;;;;;4.53;2.28;;;;;;;;;;5053042;28;20025;-69
2024/01/06 01:01:40;;;;;;;5.60;2.88;;;;;;;;;;5052264;28;20021;-69
2024/01/06 01:04:25;;;;;;;3.38;2.35;;;;;;;;;;5052992;28;20087;-69
2024/01/06 01:07:12;;;;;;;6.47;2.45;;;;;;;;;;5052961;28;20025;-69
2024/01/06 01:09:57;;;;;;;5.60;2.08;;;;;;;;;;5044691;28;20026;-69
2024/01/06 01:12:43;;;;;;;4.38;1.88;;;;;;;;;;5036981;28;20486;-69
2024/01/06 01:15:29;;;;;;;8.80;2.83;;;;;;;;;;5034595;28;20379;-69
2024/01/06 01:18:14;;;;;;;4.32;2.33;;;;;;;;;;5053127;28;20037;-69
2024/01/06 01:21:00;;;;;;;4.25;2.30;;;;;;;;;;5052455;28;20049;-69
2024/01/06 01:23:45;;;;;;;3.50;2.33;;;;;;;;;;5052936;28;20021;-69
2024/01/06 01:26:31;;;;;;;5.60;3.05;;;;;;;;;;5052747;28;20025;-69
2024/01/06 01:29:17;;;;;;;2.92;2.20;;;;;;;;;;5052236;28;20017;-69
2024/01/06 01:32:03;;;;;;;7.45;2.45;;;;;;;;;;5052148;28;20560;-69
2024/01/06 01:34:49;;;;;;;4.03;2.20;;;;;;;;;;5051910;28;20448;-69
2024/01/06 01:37:34;;;;;;;3.45;2.35;;;;;;;;;;5052591;28;20036;-69
2024/01/06 01:40:20;;;;;;;3.33;2.22;;;;;;;;;;5042151;28;20110;-69
2024/01/06 01:43:06;;;;;;;6.03;2.22;;;;;;;;;;5041314;28;20112;-69
2024/01/06 01:45:53;;;;;;;4.22;2.33;;;;;;;;;;5043333;28;20080;-69
2024/01/06 01:48:39;;;;;;;3.72;2.30;;;;;;;;;;5051425;28;20520;-68
2024/01/06 01:51:33;;;;;;;2.90;1.88;;;;;;;;;;5036982;28;20025;-69
2024/01/06 01:54:19;;;;;;;5.38;2.35;;;;;;;;;;5031203;28;20021;-69
2024/01/06 01:57:04;;;;;;;7.32;2.50;;;;;;;;;;5040173;28;20036;-69
2024/01/06 01:59:52;;;;;;;3.67;2.40;;;;;;;;;;5051734;28;20025;-69
2024/01/06 02:02:38;;;;;;;3.05;2.42;;;;;;;;;;5051819;28;20033;-69
2024/01/06 02:05:23;;;;;;;4.45;2.95;;;;;;;;;;5052774;28;20025;-69
2024/01/06 02:08:09;;;;;;;3.22;2.30;;;;;;;;;;5052713;28;20017;-69
2024/01/06 02:10:56;;;;;;;4.43;2.40;;;;;;;;;;5052237;28;20064;-69
2024/01/06 02:13:41;;;;;;;4.22;2.53;;;;;;;;;;5050664;28;20041;-69
2024/01/06 02:16:27;;;;;;;6.50;2.25;;;;;;;;;;5051978;28;20028;-69
2024/01/06 02:19:13;;;;;;;5.85;2.22;;;;;;;;;;5052331;28;20025;-69
2024/01/06 02:21:59;;;;;;;4.32;2.92;;;;;;;;;;5052413;28;20061;-69
2024/01/06 02:24:44;;;;;;;2.92;2.55;;;;;;;;;;5052665;28;20021;-69
2024/01/06 02:27:31;;;;;;;3.08;2.55;;;;;;;;;;5052193;28;20104;-68
2024/01/06 02:30:17;;;;;;;5.70;3.83;;;;;;;;;;5051961;28;20393;-69
2024/01/06 02:33:03;;;;;;;4.05;3.40;;;;;;;;;;5055219;28;20024;-69
2024/01/06 02:36:07;;;;;;;5.88;2.65;;;;;;;;;;5046463;28;20495;-69
2024/01/06 02:38:53;;;;;;;3.67;2.65;;;;;;;;;;5035424;28;20025;-69
2024/01/06 02:41:38;;;;;;;3.35;2.72;;;;;;;;;;5035180;28;20036;-69
2024/01/06 02:44:24;;;;;;;4.95;2.72;;;;;;;;;;5035350;28;20032;-69
2024/01/06 02:47:10;;;;;;;11.80;3.28;;;;;;;;;;5035487;28;20096;-69
2024/01/06 02:49:55;;;;;;;6.00;2.30;;;;;;;;;;5036178;28;20032;-69
2024/01/06 02:52:41;;;;;;;4.78;2.72;;;;;;;;;;5035566;28;20083;-69
2024/01/06 02:55:26;;;;;;;4.07;2.22;;;;;;;;;;5035841;28;20063;-69
2024/01/06 02:58:12;;;;;;;3.20;2.00;;;;;;;;;;5034889;28;20029;-69
2024/01/06 03:00:59;;;;;;;5.47;2.15;;;;;;;;;;5035235;28;20025;-69
2024/01/06 03:03:44;;;;;;;2.63;1.92;;;;;;;;;;5035396;28;20116;-69
2024/01/06 03:06:30;;;;;;;6.47;2.53;;;;;;;;;;5035752;28;20014;-69
2024/01/06 03:09:17;;;;;;;4.88;1.80;;;;;;;;;;5035556;28;20033;-69
2024/01/06 03:12:02;;;;;;;5.72;2.38;;;;;;;;;;5034894;28;20041;-69
2024/01/06 03:14:48;;;;;;;5.30;2.22;;;;;;;;;;5035742;28;20036;-69
2024/01/06 03:17:34;;;;;;;3.75;2.35;;;;;;;;;;5034603;28;20026;-69
2024/01/06 03:20:19;;;;;;;3.65;2.60;;;;;;;;;;5034815;28;20017;-69
2024/01/06 03:23:05;;;;;;;3.47;2.30;;;;;;;;;;5034523;28;20028;-69
2024/01/06 03:25:51;;;;;;;2.72;2.03;;;;;;;;;;5035309;28;20026;-69
2024/01/06 03:28:36;;;;;;;4.10;2.17;;;;;;;;;;5035193;28;20447;-69
2024/01/06 03:31:22;;;;;;;5.32;2.33;;;;;;;;;;5034520;28;20044;-69
2024/01/06 03:34:08;;;;;;;6.18;3.90;;;;;;;;;;5033181;28;20402;-69
2024/01/06 03:36:54;;;;;;;4.13;2.20;;;;;;;;;;5033685;28;20048;-69
2024/01/06 03:39:40;;;;;;;5.95;2.50;;;;;;;;;;5034475;28;20024;-69
2024/01/06 03:42:25;;;;;;;2.50;2.00;;;;;;;;;;5033805;28;20068;-69
2024/01/06 03:45:11;;;;;;;2.65;2.33;;;;;;;;;;5034086;28;20021;-69
2024/01/06 03:47:56;;;;;;;6.38;2.95;;;;;;;;;;5034273;28;20028;-69
2024/01/06 03:50:42;;;;;;;9.88;2.53;;;;;;;;;;5034112;28;20047;-69
2024/01/06 03:53:28;;;;;;;3.25;2.15;;;;;;;;;;5034214;28;20489;-69
2024/01/06 03:56:13;;;;;;;4.20;1.83;;;;;;;;;;5034013;28;20061;-69
2024/01/06 03:58:59;;;;;;;4.22;2.65;;;;;;;;;;5034824;28;20032;-69
2024/01/06 04:01:44;;;;;;;2.95;2.00;;;;;;;;;;5034077;28;20021;-69
2024/01/06 04:04:30;;;;;;;3.90;2.47;;;;;;;;;;5034119;28;20478;-69
2024/01/06 04:07:16;;;;;;;5.43;3.03;;;;;;;;;;5036024;28;20390;-69
2024/01/06 04:10:01;;;;;;;2.35;1.80;;;;;;;;;;5038725;28;20048;-69
2024/01/06 04:12:47;;;;;;;5.40;2.40;;;;;;;;;;5051573;28;20028;-68
2024/01/06 04:15:33;;;;;;;4.85;2.05;;;;;;;;;;5037866;28;20029;-69
2024/01/06 04:18:18;;;;;;;6.00;2.38;;;;;;;;;;5033339;28;20033;-69
2024/01/06 04:21:08;;;;;;;2.53;2.13;;;;;;;;;;5032651;28;20025;-69
2024/01/06 04:23:55;;;;;;;8.18;2.40;;;;;;;;;;5034033;28;20025;-69
2024/01/06 04:26:44;;;;;;;10.65;3.17;;;;;;;;;;5037140;28;20371;-69
2024/01/06 04:29:30;;;;;;;2.53;1.60;;;;;;;;;;5053631;28;20025;-69
2024/01/06 04:32:15;;;;;;;3.03;2.72;;;;;;;;;;5046700;28;20460;-68
2024/01/06 04:35:01;;;;;;;6.03;2.00;;;;;;;;;;5032995;28;20029;-69
2024/01/06 04:37:47;;;;;;;3.40;2.20;;;;;;;;;;5034216;28;20022;-69
2024/01/06 04:40:33;;;;;;;5.55;2.50;;;;;;;;;;5032439;28;20107;-69
2024/01/06 04:43:18;;;;;;;3.03;2.38;;;;;;;;;;5032846;28;20026;-69
2024/01/06 04:46:04;;;;;;;3.92;2.08;;;;;;;;;;5033297;28;20021;-69
2024/01/06 04:48:50;;;;;;;3.95;2.15;;;;;;;;;;5032772;28;20453;-69
2024/01/06 04:51:36;;;;;;;3.83;2.13;;;;;;;;;;5032525;28;20018;-69
2024/01/06 04:54:22;;;;;;;4.75;2.50;;;;;;;;;;5032074;28;20037;-69
2024/01/06 04:57:07;;;;;;;3.58;1.92;;;;;;;;;;5032955;28;20112;-69
2024/01/06 04:59:53;;;;;;;3.95;2.35;;;;;;;;;;5033344;28;20409;-69
2024/01/06 05:02:38;;;;;;;6.00;1.95;;;;;;;;;;5033094;28;20024;-69
2024/01/06 05:05:24;;;;;;;4.63;2.25;;;;;;;;;;5032220;28;20021;-69
2024/01/06 05:08:10;;;;;;;2.33;1.67;;;;;;;;;;5033235;28;20471;-69
2024/01/06 05:10:55;;;;;;;2.13;1.50;;;;;;;;;;5032844;28;20021;-69
2024/01/06 05:13:41;;;;;;;2.47;1.73;;;;;;;;;;5032508;28;20037;-69
2024/01/06 05:16:27;;;;;;;9.13;2.80;;;;;;;;;;5033019;28;20422;-69
2024/01/06 05:19:19;;;;;;;7.97;2.15;;;;;;;;;;5032790;28;20032;-69
2024/01/06 05:22:04;;;;;;;4.80;2.03;;;;;;;;;;5033013;28;20025;-69
2024/01/06 05:24:53;;;;;;;4.47;2.35;;;;;;;;;;5033131;28;20076;-69
2024/01/06 05:27:38;;;;;;;2.63;1.92;;;;;;;;;;5032112;28;20087;-69
2024/01/06 05:30:24;;;;;;;3.50;2.03;;;;;;;;;;5032711;28;20066;-69
2024/01/06 05:33:12;;;;;;;4.93;1.92;;;;;;;;;;5032577;28;20033;-69
2024/01/06 05:35:58;;;;;;;3.70;2.10;;;;;;;;;;5033371;28;20033;-69
2024/01/06 05:38:43;;;;;;;5.38;2.97;;;;;;;;;;5032845;28;20479;-69
2024/01/06 05:41:29;;;;;;;6.10;3.85;;;;;;;;;;5032553;28;20509;-69
2024/01/06 05:44:15;;;;;;;9.13;4.63;;;;;;;;;;5032603;28;20025;-69
2024/01/06 05:47:01;;;;;;;7.97;4.03;;;;;;;;;;5032499;28;20049;-69
2024/01/06 05:49:46;;;;;;;7.57;3.78;;;;;;;;;;5031861;28;20501;-69
2024/01/06 05:52:32;;;;;;;7.65;4.38;;;;;;;;;;5032384;28;20029;-69
2024/01/06 05:55:19;;;;;;;7.03;3.80;;;;;;;;;;5031919;28;20033;-69
2024/01/06 05:58:04;;;;;;;10.93;4.45;;;;;;;;;;5032596;28;20549;-69
2024/01/06 06:00:50;;;;;;;11.13;5.13;;;;;;;;;;5032383;28;20121;-69
2024/01/06 06:03:36;;;;;;;12.88;5.55;;;;;;;;;;5031539;28;20498;-69
2024/01/06 06:06:22;;;;;;;12.70;5.22;;;;;;;;;;5034854;28;20028;-69
2024/01/06 06:09:09;;;;;;;10.18;4.45;;;;;;;;;;5041568;28;20033;-68
2024/01/06 06:11:54;;;;;;;10.02;5.70;;;;;;;;;;5047386;28;20397;-69
2024/01/06 06:14:40;;;;;;;11.40;4.82;;;;;;;;;;5045461;28;20028;-69
2024/01/06 06:17:25;;;;;;;9.15;5.28;;;;;;;;;;5055873;28;20013;-69
2024/01/06 06:20:11;;;;;;;9.75;5.10;;;;;;;;;;5056334;28;20036;-69
2024/01/06 06:22:57;;;;;;;11.98;4.85;;;;;;;;;;5056081;28;20029;-69
2024/01/06 06:25:42;;;;;;;13.80;4.43;;;;;;;;;;5055918;28;20017;-69
2024/01/06 06:28:28;;;;;;;10.43;4.75;;;;;;;;;;5035400;28;20029;-69
2024/01/06 06:31:14;;;;;;;16.23;4.95;;;;;;;;;;5037963;28;20029;-69
2024/01/06 06:33:59;;;;;;;10.07;4.82;;;;;;;;;;5044543;28;20025;-69
2024/01/06 06:36:46;;;;;;;11.25;4.55;;;;;;;;;;5055013;28;20021;-69
2024/01/06 06:39:34;;;;;;;8.95;5.88;;;;;;;;;;5054787;28;20513;-69
2024/01/06 06:42:19;;;;;;;9.73;5.90;;;;;;;;;;5055347;28;20036;-69
2024/01/06 06:45:05;;;;;;;12.30;5.20;;;;;;;;;;5054551;28;20028;-69
2024/01/06 06:47:51;;;;;;;9.95;5.88;;;;;;;;;;5054927;28;20060;-70
2024/01/06 06:50:36;;;;;;;10.02;5.80;;;;;;;;;;5055097;28;20024;-69
2024/01/06 06:53:22;;;;;;;10.10;4.95;;;;;;;;;;5055239;28;20017;-69
2024/01/06 06:56:08;;;;;;;9.20;4.30;;;;;;;;;;5055011;28;20021;-69
2024/01/06 06:58:54;;;;;;;10.50;4.97;;;;;;;;;;5054990;28;20104;-69
2024/01/06 07:01:39;;;;;;;10.13;5.70;;;;;;;;;;5054820;28;20468;-69
2024/01/06 07:04:26;;;;;;;9.98;4.60;;;;;;;;;;5054250;28;20100;-69
2024/01/06 07:07:12;;;;;;;12.57;5.82;;;;;;;;;;5055282;28;20025;-69
2024/01/06 07:09:58;;;;;;;15.73;6.15;;;;;;;;;;5054983;28;20506;-69
2024/01/06 07:12:43;;;;;;;11.07;4.57;;;;;;;;;;5054818;28;20057;-69
2024/01/06 07:15:29;;;;;;;4.97;3.67;;;;;;;;;;5055404;28;20021;-69
2024/01/06 07:18:14;;;;;;;8.77;4.97;;;;;;;;;;5053753;28;20036;-69
2024/01/06 07:21:00;;;;;;;10.10;5.65;;;;;;;;;;5055595;28;20107;-69
2024/01/06 07:23:46;;;;;;;9.57;4.93;;;;;;;;;;5055351;28;20021;-69
2024/01/06 07:26:31;;;;;;;11.07;5.25;;;;;;;;;;5054938;28;20414;-69
2024/01/06 07:29:17;;;;;;;13.27;4.50;;;;;;;;;;5054493;28;20055;-69
2024/01/06 07:32:03;;;;;;;11.60;3.65;;;;;;;;;;5054362;28;20033;-69
2024/01/06 07:34:49;;;;;;;11.48;4.30;;;;;;;;;;5054026;28;20108;-69
2024/01/06 07:37:34;;;;;;;7.15;4.28;;;;;;;;;;5054237;28;20021;-69
2024/01/06 07:40:20;;;;;;;8.88;4.15;;;;;;;;;;5052671;28;20071;-69
2024/01/06 07:43:06;;;;;;;8.60;4.10;;;;;;;;;;5054017;28;20074;-69
2024/01/06 07:45:51;;;;;;;9.50;4.50;;;;;;;;;;5054742;28;20116;-69
2024/01/06 07:48:37;;;;;;;10.73;4.35;;;;;;;;;;5052952;28;20075;-69
2024/01/06 07:51:23;;;;;;;7.95;5.82;;;;;;;;;;5054693;28;20367;-69
2024/01/06 07:54:09;;;;;;;9.05;5.30;;;;;;;;;;5053786;28;20017;-69
2024/01/06 07:56:55;;;;;;;10.98;3.88;;;;;;;;;;5053529;28;20025;-69
2024/01/06 07:59:40;;;;;;;6.45;4.20;;;;;;;;;;5053019;28;20142;-69
2024/01/06 08:02:26;;;;;;;5.90;4.47;;;;;;;;;;5052989;28;20048;-69
2024/01/06 08:05:12;;;;;;;7.40;4.65;;;;;;;;;;5053416;28;20056;-69
2024/01/06 08:07:57;;;;;;;13.63;4.78;;;;;;;;;;5053234;28;20331;-69
2024/01/06 08:10:43;;;;;;;6.80;3.55;;;;;;;;;;5052925;28;20021;-69
2024/01/06 08:13:29;;;;;;;6.00;3.83;;;;;;;;;;5052991;28;20029;-69
2024/01/06 08:16:14;;;;;;;6.20;4.25;;;;;;;;;;5052901;28;20036;-70
2024/01/06 08:19:00;;;;;;;9.60;6.18;;;;;;;;;;5053455;28;20398;-70
2024/01/06 08:21:47;;;;;;;6.47;3.97;;;;;;;;;;5053716;28;20021;-70
2024/01/06 08:24:33;;;;;;;5.85;4.20;;;;;;;;;;5052930;28;20021;-70
2024/01/06 08:27:19;;;;;;;10.75;4.72;;;;;;;;;;5033592;28;20095;-70
2024/01/06 08:30:06;;;;;;;9.70;3.78;;;;;;;;;;5033038;28;20056;-70
2024/01/06 08:32:52;;;;;;;7.55;3.95;;;;;;;;;;5051618;28;20037;-70
2024/01/06 08:35:40;;;;;;;4.88;3.90;;;;;;;;;;5053089;28;20025;-70
2024/01/06 08:38:25;;;;;;;7.00;3.50;;;;;;;;;;5052943;28;20471;-70
2024/01/06 08:41:11;;;;;;;7.93;3.53;;;;;;;;;;5052633;28;20044;-70
2024/01/06 08:43:57;;;;;;;8.07;4.00;;;;;;;;;;5052281;28;20047;-70
2024/01/06 08:46:43;;;;;;;8.77;4.47;;;;;;;;;;5050963;28;20462;-70
2024/01/06 08:49:28;;;;;;;5.43;3.63;;;;;;;;;;5052949;28;20032;-70
2024/01/06 08:52:14;;;;;;;5.47;3.35;;;;;;;;;;5052512;28;20025;-71
2024/01/06 08:54:59;;;;;;;5.70;4.05;;;;;;;;;;5052747;28;20025;-70
2024/01/06 08:57:46;;;;;;;8.70;3.97;;;;;;;;;;5051987;28;20051;-70
2024/01/06 09:00:33;;;;;;;6.55;3.28;;;;;;;;;;5052682;28;20059;-70
2024/01/06 09:03:24;;;;;;;12.32;4.30;;;;;;;;;;5051308;28;20055;-70
2024/01/06 09:06:10;;;;;;;8.45;3.95;;;;;;;;;;5052404;28;20025;-70
2024/01/06 09:08:56;;;;;;;6.55;3.58;;;;;;;;;;5052606;28;20029;-70
2024/01/06 09:11:43;;;;;;;6.72;4.00;;;;;;;;;;5052186;28;20086;-71
2024/01/06 09:14:30;;;;;;;5.90;3.67;;;;;;;;;;5051769;28;20028;-70
2024/01/06 09:17:16;;;;;;;8.98;3.47;;;;;;;;;;5052430;28;20025;-70
2024/01/06 09:20:02;;;;;;;7.13;4.10;;;;;;;;;;5052160;28;20016;-70
2024/01/06 09:22:48;;;;;;;8.50;3.55;;;;;;;;;;5051146;28;20060;-71
2024/01/06 09:25:33;;;;;;;10.88;4.00;;;;;;;;;;5051641;28;20031;-70
2024/01/06 09:28:21;;;;;;;8.45;4.00;;;;;;;;;;5052024;28;20446;-70
2024/01/06 09:31:06;;;;;;;7.57;3.95;;;;;;;;;;5052533;28;20581;-70
2024/01/06 09:33:52;;;;;;;6.32;4.47;;;;;;;;;;5052091;28;20402;-70
2024/01/06 09:36:38;;;;;;;6.00;3.65;;;;;;;;;;5050506;28;20108;-70
2024/01/06 09:39:23;;;;;;;12.25;4.22;;;;;;;;;;5052132;28;20028;-70
2024/01/06 09:42:10;;;;;;;8.30;3.67;;;;;;;;;;5055491;28;20029;-70
2024/01/06 09:44:56;;;;;;;6.25;4.82;;;;;;;;;;5054632;28;20398;-70
2024/01/06 09:47:41;;;;;;;5.88;4.20;;;;;;;;;;5055961;28;20021;-70
2024/01/06 09:50:28;;;;;;;7.50;3.63;;;;;;;;;;5055607;28;20025;-70
2024/01/06 09:53:14;;;;;;;7.15;3.15;;;;;;;;;;5054788;28;20063;-70
2024/01/06 09:56:00;;;;;;;9.27;4.95;;;;;;;;;;5055335;28;20398;-70
2024/01/06 09:58:45;;;;;;;6.43;3.83;;;;;;;;;;5054488;28;20508;-70
2024/01/06 10:01:31;;;;;;;9.27;4.53;;;;;;;;;;5055261;28;20025;-70
2024/01/06 10:04:17;;;;;;;10.18;4.10;;;;;;;;;;5055245;28;20497;-70
2024/01/06 10:07:02;;;;;;;8.55;4.78;;;;;;;;;;5054243;28;20115;-70
2024/01/06 10:09:48;;;;;;;5.72;3.70;;;;;;;;;;5038554;28;20037;-70
2024/01/06 10:12:33;;;;;;;5.40;3.35;;;;;;;;;;5054872;28;20032;-70
2024/01/06 10:15:19;;;;;;;6.28;3.60;;;;;;;;;;5055985;28;20059;-70
2024/01/06 10:18:05;;;;;;;6.38;4.03;;;;;;;;;;5055294;28;20075;-70
2024/01/06 10:20:51;;;;;;;7.78;3.55;;;;;;;;;;5056004;28;20017;-69
2024/01/06 10:23:36;;;;;;;6.60;2.97;;;;;;;;;;5055192;28;20128;-69
2024/01/06 10:26:22;;;;;;;8.93;3.28;;;;;;;;;;5055460;28;20056;-69
2024/01/06 10:29:08;;;;;;;5.60;3.63;;;;;;;;;;5043670;28;20028;-69
2024/01/06 10:31:54;;;;;;;3.90;3.13;;;;;;;;;;5053741;28;20017;-69
2024/01/06 10:34:40;;;;;;;5.75;5.13;;;;;;;;;;5052578;28;20025;-69
2024/01/06 10:37:25;;;;;;;9.18;3.30;;;;;;;;;;5055164;28;20054;-70
2024/01/06 10:40:13;;;;;;;4.55;3.45;;;;;;;;;;5053832;28;20025;-69
2024/01/06 10:43:00;;;;;;;7.28;3.65;;;;;;;;;;5054740;28;20031;-69
2024/01/06 10:45:45;;;;;;;4.13;2.83;;;;;;;;;;5054327;28;20494;-69
2024/01/06 10:48:33;;;;;;;8.73;3.22;;;;;;;;;;5053836;28;20025;-70
2024/01/06 10:51:19;;;;;;;9.35;3.00;;;;;;;;;;5053778;28;20029;-70
2024/01/06 10:54:05;;;;;;;8.85;3.85;;;;;;;;;;5055168;28;20505;-70
2024/01/06 10:56:51;;;;;;;12.13;3.72;;;;;;;;;;5055223;28;20029;-70
2024/01/06 10:59:37;;;;;;;12.90;6.32;;;;;;;;;;5055608;28;20029;-70
2024/01/06 11:02:25;;;;;;;12.25;4.40;;;;;;;;;;5053951;28;20150;-70
2024/01/06 11:05:11;;;;;;;5.78;3.65;;;;;;;;;;5053685;28;20021;-70
2024/01/06 11:08:00;;;;;;;6.43;3.25;;;;;;;;;;5055193;28;20027;-70
2024/01/06 11:10:46;;;;;;;7.18;3.28;;;;;;;;;;5054799;28;20108;-70
2024/01/06 11:13:32;;;;;;;7.50;3.53;;;;;;;;;;5054089;28;20025;-70
2024/01/06 11:16:37;;;;;;;5.88;3.30;;;;;;;;;;5054775;28;20546;-70
2024/01/06 11:19:35;;;;;;;5.80;3.72;;;;;;;;;;5054768;28;20029;-70
2024/01/06 11:22:30;;;;;;;6.55;3.25;;;;;;;;;;5054273;28;20116;-70
2024/01/06 11:25:20;;;;;;;5.70;3.05;;;;;;;;;;5052367;28;20021;-70
2024/01/06 11:28:07;;;;;;;7.57;3.55;;;;;;;;;;5055328;28;20021;-70
2024/01/06 11:31:09;;;;;;;6.28;4.13;;;;;;;;;;5054095;28;20017;-71
2024/01/06 11:33:54;;;;;;;7.45;3.50;;;;;;;;;;5052931;28;20021;-71
2024/01/06 11:36:40;;;;;;;10.55;3.80;;;;;;;;;;5054962;28;20483;-71
2024/01/06 11:39:40;;;;;;;6.97;3.28;;;;;;;;;;5052724;28;20028;-71
2024/01/06 11:42:32;;;;;;;9.30;2.88;;;;;;;;;;5054259;28;20071;-70
2024/01/06 11:45:18;;;;;;;9.35;3.55;;;;;;;;;;5054062;28;20104;-71
2024/01/06 11:48:05;;;;;;;7.70;3.10;;;;;;;;;;5054365;28;20016;-71
2024/01/06 11:50:51;;;;;;;9.18;3.65;;;;;;;;;;5052084;28;20104;-71
2024/01/06 11:53:37;;;;;;;4.80;2.78;;;;;;;;;;5054244;28;20025;-71
2024/01/06 11:56:24;;;;;;;4.75;3.10;;;;;;;;;;5054205;28;20036;-71
2024/01/06 11:59:10;;;;;;;12.65;3.90;;;;;;;;;;5054206;28;20032;-71
2024/01/06 12:01:56;;;;;;;8.75;3.92;;;;;;;;;;5054197;28;20108;-71
2024/01/06 12:04:42;;;;;;;10.07;3.28;;;;;;;;;;5053364;28;20119;-71
2024/01/06 12:07:27;;;;;;;7.18;2.80;;;;;;;;;;5054128;28;20028;-71
2024/01/06 12:10:14;;;;;;;7.68;2.80;;;;;;;;;;5054055;28;20029;-71
2024/01/06 12:12:59;;;;;;;6.10;3.25;;;;;;;;;;5053241;28;20029;-71
2024/01/06 12:15:45;;;;;;;5.88;3.08;;;;;;;;;;5053467;28;20093;-71
2024/01/06 12:18:31;;;;;;;8.20;2.80;;;;;;;;;;5053880;28;20021;-71
2024/01/06 12:21:16;;;;;;;7.10;3.15;;;;;;;;;;5053479;28;20505;-71
2024/01/06 12:24:12;;;;;;;6.00;3.00;;;;;;;;;;5053463;28;20036;-71
2024/01/06 12:26:59;;;;;;;8.02;3.15;;;;;;;;;;5053319;28;20025;-71
2024/01/06 12:29:44;;;;;;;5.40;3.53;;;;;;;;;;5052204;28;20025;-71
2024/01/06 12:32:30;;;;;;;4.68;2.65;;;;;;;;;;5053838;28;20028;-71
2024/01/06 12:35:16;;;;;;;12.52;4.07;;;;;;;;;;5053802;28;20029;-71
2024/01/06 12:38:06;;;;;;;9.77;3.25;;;;;;;;;;5053514;28;20040;-71
2024/01/06 12:40:51;;;;;;;5.32;3.13;;;;;;;;;;5053680;28;20032;-71
2024/01/06 12:43:37;;;;;;;6.32;2.85;;;;;;;;;;5052337;28;20490;-71
2024/01/06 12:46:23;;;;;;;4.13;2.83;;;;;;;;;;5053448;28;20521;-71
2024/01/06 12:49:08;;;;;;;7.18;2.97;;;;;;;;;;5053038;28;20128;-71
2024/01/06 12:51:54;;;;;;;4.85;2.75;;;;;;;;;;5053265;28;20025;-71
2024/01/06 12:54:40;;;;;;;7.88;3.40;;;;;;;;;;5053494;28;20029;-71
2024/01/06 12:57:26;;;;;;;6.93;3.17;;;;;;;;;;5052458;28;20033;-70
2024/01/06 13:00:12;;;;;;;8.98;3.17;;;;;;;;;;5053178;28;20025;-70
2024/01/06 13:02:58;;;;;;;7.93;3.42;;;;;;;;;;5051478;28;20098;-71
2024/01/06 13:05:44;;;;;;;4.95;3.08;;;;;;;;;;5052365;28;20035;-70
2024/01/06 13:08:30;;;;;;;8.93;2.92;;;;;;;;;;5052754;28;20013;-71
2024/01/06 13:11:15;;;;;;;8.75;3.05;;;;;;;;;;5051347;28;20021;-70
2024/01/06 13:14:01;;;;;;;6.63;3.05;;;;;;;;;;5051020;28;20029;-71
2024/01/06 13:16:47;;;;;;;6.45;2.72;;;;;;;;;;5052423;28;20017;-71
2024/01/06 13:19:33;;;;;;;7.95;3.78;;;;;;;;;;5053165;28;20021;-70
2024/01/06 13:22:21;;;;;;;11.73;3.70;;;;;;;;;;5052786;28;20059;-71
2024/01/06 13:25:08;;;;;;;12.48;3.72;;;;;;;;;;5053177;28;20043;-70
2024/01/06 13:27:54;;;;;;;5.20;3.30;;;;;;;;;;5052695;28;20021;-71
2024/01/06 13:30:41;;;;;;;6.40;2.80;;;;;;;;;;5052690;28;20025;-71
2024/01/06 13:33:26;;;;;;;6.38;3.30;;;;;;;;;;5052638;28;20464;-70
2024/01/06 13:36:12;;;;;;;8.20;3.83;;;;;;;;;;5051006;28;20025;-70
2024/01/06 13:38:59;;;;;;;9.52;4.80;;;;;;;;;;5052664;28;20033;-70
2024/01/06 13:41:48;;;;;;;8.80;4.80;;;;;;;;;;5044987;28;20028;-70
2024/01/06 13:44:34;;;;;;;13.88;5.00;;;;;;;;;;5032155;28;20018;-70
2024/01/06 13:47:19;;;;;;;9.32;3.67;;;;;;;;;;5032557;28;20541;-70
2024/01/06 13:50:05;;;;;;;7.95;4.18;;;;;;;;;;5048116;28;20029;-69
2024/01/06 13:52:51;;;;;;;6.50;3.28;;;;;;;;;;5032089;28;20021;-70
2024/01/06 13:55:37;;;;;;;6.40;3.05;;;;;;;;;;5037798;28;20021;-70
2024/01/06 13:58:22;;;;;;;6.72;3.53;;;;;;;;;;5050264;28;20032;-70
2024/01/06 14:01:10;;;;;;;7.25;4.18;;;;;;;;;;5052186;28;20017;-70
2024/01/06 14:03:59;;;;;;;10.70;4.78;;;;;;;;;;5051446;28;20032;-70
2024/01/06 14:06:47;;;;;;;7.93;3.40;;;;;;;;;;5050778;28;20013;-70
2024/01/06 14:09:33;;;;;;;6.40;3.38;;;;;;;;;;5050909;28;20078;-69
2024/01/06 14:12:19;;;;;;;12.00;4.68;;;;;;;;;;5052193;28;20385;-70
2024/01/06 14:15:06;;;;;;;6.97;3.00;;;;;;;;;;5052240;28;20029;-70
2024/01/06 14:17:54;;;;;;;5.63;3.08;;;;;;;;;;5042944;28;20449;-69
2024/01/06 14:20:40;;;;;;;9.85;4.65;;;;;;;;;;5041046;28;20406;-69
2024/01/06 14:23:27;;;;;;;7.45;3.08;;;;;;;;;;5046530;28;20025;-69
2024/01/06 14:26:13;;;;;;;6.32;4.50;;;;;;;;;;5039532;28;20372;-70
2024/01/06 14:28:58;;;;;;;8.18;2.97;;;;;;;;;;5042380;28;20021;-69
2024/01/06 14:31:44;;;;;;;7.03;2.80;;;;;;;;;;5041579;28;20049;-68
2024/01/06 14:34:30;;;;;;;10.38;4.03;;;;;;;;;;5046558;28;20415;-69
2024/01/06 14:37:16;;;;;;;6.38;3.08;;;;;;;;;;5044171;28;20057;-68
2024/01/06 14:40:05;;;;;;;7.25;3.58;;;;;;;;;;5038741;28;20025;-70
2024/01/06 14:42:50;;;;;;;8.05;5.05;;;;;;;;;;5041230;28;20507;-70
2024/01/06 14:45:36;;;;;;;11.80;3.65;;;;;;;;;;5046567;28;20097;-70
2024/01/06 14:48:22;;;;;;;5.97;3.35;;;;;;;;;;5048067;28;20029;-69
2024/01/06 14:51:08;;;;;;;7.70;3.75;;;;;;;;;;5050157;28;20078;-70
2024/01/06 14:53:55;;;;;;;7.13;2.97;;;;;;;;;;5044479;28;20021;-70
2024/01/06 14:56:41;;;;;;;7.40;3.97;;;;;;;;;;5041151;28;20486;-70
2024/01/06 14:59:27;;;;;;;8.63;3.97;;;;;;;;;;5048183;28;20051;-70
2024/01/06 15:02:13;;;;;;;5.57;3.83;;;;;;;;;;5043964;28;20040;-71
2024/01/06 15:04:59;;;;;;;7.30;3.58;;;;;;;;;;5044967;28;20029;-71
2024/01/06 15:07:45;;;;;;;9.10;3.85;;;;;;;;;;5048060;28;20044;-70
2024/01/06 15:10:31;;;;;;;8.68;4.10;;;;;;;;;;5037596;28;20410;-70
2024/01/06 15:13:16;;;;;;;8.30;3.75;;;;;;;;;;5044644;28;20486;-70
2024/01/06 15:16:02;;;;;;;7.40;2.97;;;;;;;;;;5043688;28;20037;-70
2024/01/06 15:18:49;;;;;;;6.43;3.20;;;;;;;;;;5039356;28;20033;-70
2024/01/06 15:21:36;;;;;;;4.97;3.45;;;;;;;;;;5050818;28;20021;-70
2024/01/06 15:24:23;;;;;;;6.35;3.20;;;;;;;;;;5054342;28;20032;-70
2024/01/06 15:27:09;;;;;;;6.88;4.05;;;;;;;;;;5054484;28;20421;-71
2024/01/06 15:29:54;;;;;;;6.57;3.25;;;;;;;;;;5054879;28;20027;-71
2024/01/06 15:32:41;;;;;;;5.53;3.00;;;;;;;;;;5054680;28;20032;-70
2024/01/06 15:35:27;;;;;;;7.57;3.58;;;;;;;;;;5054489;28;20028;-70
2024/01/06 15:38:12;;;;;;;10.30;3.78;;;;;;;;;;5053954;28;20414;-70
2024/01/06 15:41:00;;;;;;;7.38;3.03;;;;;;;;;;5054614;28;20028;-70
2024/01/06 15:43:46;;;;;;;6.55;3.28;;;;;;;;;;5042094;28;20455;-72
2024/01/06 15:46:31;;;;;;;8.48;3.55;;;;;;;;;;5054324;28;20151;-71
2024/01/06 15:49:18;;;;;;;8.15;3.25;;;;;;;;;;5053202;28;20060;-70
2024/01/06 15:52:07;;;;;;;7.43;3.33;;;;;;;;;;5054315;28;20021;-70
2024/01/06 15:54:53;;;;;;;8.55;4.07;;;;;;;;;;5052507;28;20029;-70
2024/01/06 15:57:40;;;;;;;8.27;3.78;;;;;;;;;;5038176;28;20555;-70
2024/01/06 16:00:26;;;;;;;10.73;4.00;;;;;;;;;;5033543;28;20033;-71
2024/01/06 16:03:12;;;;;;;7.93;3.97;;;;;;;;;;5037784;28;20498;-70
2024/01/06 16:05:57;;;;;;;7.70;3.83;;;;;;;;;;5033862;28;20033;-70
2024/01/06 16:08:43;;;;;;;7.20;3.67;;;;;;;;;;5042130;28;20029;-70
2024/01/06 16:11:29;;;;;;;8.75;4.45;;;;;;;;;;5033243;28;20108;-71
2024/01/06 16:14:14;;;;;;;6.80;4.45;;;;;;;;;;5039566;28;20033;-70
2024/01/06 16:17:00;;;;;;;12.95;4.55;;;;;;;;;;5053522;28;20017;-71
2024/01/06 16:19:46;;;;;;;11.25;3.53;;;;;;;;;;5053641;28;20033;-71
2024/01/06 16:22:32;;;;;;;7.32;3.90;;;;;;;;;;5052865;28;20025;-70
2024/01/06 16:25:18;;;;;;;8.25;4.30;;;;;;;;;;5053130;28;20060;-70
2024/01/06 16:28:06;;;;;;;9.07;4.68;;;;;;;;;;5045745;28;20027;-70
2024/01/06 16:30:51;;;;;;;7.60;3.70;;;;;;;;;;5053323;28;20083;-70
2024/01/06 16:33:37;;;;;;;7.30;4.20;;;;;;;;;;5052418;28;20028;-70